Time;durP1;ratioP1;P1;durP2;ratioP2;P2;SDS_P1;SDS_P2;PMS_P1;PMS_P2;Temp;Humidity;BMP_temperature;BMP_pressure;BME280_temperature;BME280_humidity;BME280_pressure;Samples;Min_cycle;Max_cycle;Signal;HPM_P1;HPM_P2
2023/11/16 00:02:13;;;;;;;9.60;1.70;;;;;;;9.00;100.00;101911.19;5043921;28;20192;-72
2023/11/16 00:04:39;;;;;;;8.90;1.73;;;;;;;9.12;100.00;101920.56;5038297;28;20468;-71
2023/11/16 00:07:07;;;;;;;10.33;1.93;;;;;;;8.23;100.00;101806.84;5038932;28;20183;-72
2023/11/16 00:09:35;;;;;;;9.60;1.50;;;;;;;8.15;100.00;101812.16;5040335;28;20434;-72
2023/11/16 00:12:02;;;;;;;10.20;1.80;;;;;;;8.29;100.00;101824.09;5041745;28;20470;-71
2023/11/16 00:14:28;;;;;;;11.30;1.93;;;;;;;7.94;100.00;101817.88;5037352;28;20840;-72
2023/11/16 00:16:58;;;;;;;13.40;2.53;;;;;;;8.92;100.00;101981.53;5038314;28;20704;-72
2023/11/16 00:19:23;;;;;;;11.23;2.20;;;;;;;8.48;100.00;101927.31;5037560;28;20187;-72
2023/11/16 00:21:52;;;;;;;13.00;2.00;;;;;;;8.45;100.00;101927.66;5037065;28;20468;-71
2023/11/16 00:24:19;;;;;;;7.57;1.40;;;;;;;7.96;100.00;101855.97;5037653;28;20211;-71
2023/11/16 00:26:45;;;;;;;15.27;2.17;;;;;;;8.12;100.00;101882.78;5038034;28;20835;-71
2023/11/16 00:29:11;;;;;;;11.20;2.60;;;;;;;8.42;100.00;101957.34;5039290;28;20533;-73
2023/11/16 00:31:37;;;;;;;13.27;2.20;;;;;;;7.88;100.00;101878.13;5038232;28;20434;-71
2023/11/16 00:34:03;;;;;;;10.50;2.00;;;;;;;8.88;100.00;102016.78;5038721;28;21355;-72
2023/11/16 00:36:28;;;;;;;13.80;2.37;;;;;;;8.38;100.00;101946.09;5039438;28;20215;-71
2023/11/16 00:38:56;;;;;;;11.53;2.00;;;;;;;8.13;100.00;101916.53;5037523;28;20194;-71
2023/11/16 00:41:21;;;;;;;12.20;1.87;;;;;;;8.65;100.00;102033.41;5036890;28;20184;-71
2023/11/16 00:43:48;;;;;;;9.40;1.50;;;;;;;8.83;100.00;102076.97;5038409;28;20465;-71
2023/11/16 00:46:15;;;;;;;10.17;1.97;;;;;;;8.94;100.00;102099.97;5037204;28;20184;-72
2023/11/16 00:48:42;;;;;;;9.40;2.20;;;;;;;8.29;100.00;102032.59;5042398;28;20446;-72
2023/11/16 00:51:07;;;;;;;11.00;2.30;;;;;;;8.77;100.00;102124.94;5038703;28;20446;-71
2023/11/16 00:53:34;;;;;;;13.87;2.80;;;;;;;7.92;100.00;102041.59;5039426;28;20527;-71
2023/11/16 00:56:00;;;;;;;11.43;2.20;;;;;;;8.86;100.00;102184.69;5036156;28;20207;-71
2023/11/16 00:58:25;;;;;;;11.60;2.43;;;;;;;8.66;100.00;102192.88;5037675;28;21005;-71
2023/11/16 01:00:51;;;;;;;9.90;1.60;;;;;;;8.50;100.00;102203.41;5035150;28;20198;-73
2023/11/16 01:03:20;;;;;;;11.73;1.87;;;;;;;7.91;100.00;102152.13;5035660;28;20211;-72
2023/11/16 01:05:46;;;;;;;8.73;1.63;;;;;;;8.70;100.00;102317.28;5035637;28;20468;-72
2023/11/16 01:08:12;;;;;;;12.03;1.90;;;;;;;7.96;100.00;102227.34;5035054;28;20945;-71
2023/11/16 01:10:38;;;;;;;20.50;3.10;;;;;;;8.35;100.00;102291.28;5037090;28;20192;-72
2023/11/16 01:13:07;;;;;;;8.03;1.80;;;;;;;8.60;100.00;102362.84;5039199;28;20282;-71
2023/11/16 01:15:38;;;;;;;13.50;2.00;;;;;;;8.29;100.00;102380.09;5037828;28;20973;-73
2023/11/16 01:18:12;;;;;;;13.63;1.67;;;;;;;8.54;100.00;102405.38;5037198;28;20434;-73
2023/11/16 01:20:38;;;;;;;6.20;1.30;;;;;;;8.23;100.00;102381.53;5037622;28;20470;-73
2023/11/16 01:23:15;;;;;;;8.83;1.60;;;;;;;8.33;100.00;102401.06;5035300;28;20458;-73
2023/11/16 01:25:51;;;;;;;9.47;1.40;;;;;;;7.37;100.00;102244.53;5036647;28;20442;-73
2023/11/16 01:28:17;;;;;;;6.27;1.00;;;;;;;7.65;100.00;102301.53;5037032;28;20498;-73
2023/11/16 01:30:42;;;;;;;12.40;1.60;;;;;;;7.48;100.00;102285.25;5036875;28;20803;-72
2023/11/16 01:33:08;;;;;;;9.40;1.60;;;;;;;7.95;100.00;102371.75;5038981;28;20465;-73
2023/11/16 01:35:39;;;;;;;7.47;1.10;;;;;;;7.89;100.00;102317.06;5035459;28;20215;-72
2023/11/16 01:38:05;;;;;;;7.30;1.50;;;;;;;8.37;100.00;102382.91;5033100;28;20244;-71
2023/11/16 01:40:32;;;;;;;5.23;0.97;;;;;;;8.20;100.00;102411.22;5040296;28;20608;-73
2023/11/16 01:42:57;;;;;;;11.37;1.10;;;;;;;7.67;100.00;102315.59;5051107;28;20442;-72
2023/11/16 01:45:33;;;;;;;8.37;2.50;;;;;;;8.31;100.00;102445.81;5036568;28;20438;-72
2023/11/16 01:48:05;;;;;;;6.07;0.83;;;;;;;7.81;100.00;102375.72;5032767;28;20234;-72
2023/11/16 01:50:34;;;;;;;7.23;1.13;;;;;;;7.93;100.00;102428.03;5037490;28;20449;-72
2023/11/16 01:53:04;;;;;;;6.30;1.10;;;;;;;8.25;100.00;102449.06;5038801;28;20957;-71
2023/11/16 01:55:33;;;;;;;8.80;1.40;;;;;;;7.25;100.00;102273.19;5034147;28;20890;-71
2023/11/16 01:58:04;;;;;;;7.00;1.10;;;;;;;8.03;100.00;102428.84;5039002;28;20805;-71
2023/11/16 02:00:31;;;;;;;7.00;1.40;;;;;;;7.85;100.00;102410.03;5041959;28;20455;-71
2023/11/16 02:03:00;;;;;;;10.70;1.10;;;;;;;7.20;100.00;102296.78;5042463;28;20540;-71
2023/11/16 02:05:26;;;;;;;6.80;1.23;;;;;;;7.92;100.00;102413.78;5041824;28;20438;-72
2023/11/16 02:07:52;;;;;;;4.07;1.03;;;;;;;7.42;100.00;102333.88;5041137;28;20537;-72
2023/11/16 02:10:17;;;;;;;4.27;1.13;;;;;;;7.93;100.00;102401.31;5042588;28;20893;-72
2023/11/16 02:12:53;;;;;;;4.10;0.90;;;;;;;7.01;100.00;102238.94;5040201;28;20180;-72
2023/11/16 02:15:18;;;;;;;6.90;1.43;;;;;;;7.66;100.00;102325.41;5041117;28;20425;-72
2023/11/16 02:17:44;;;;;;;6.03;1.10;;;;;;;7.86;100.00;102368.94;5041074;28;20457;-72
2023/11/16 02:20:10;;;;;;;8.80;1.57;;;;;;;7.71;100.00;102341.00;5039271;28;20370;-72
2023/11/16 02:22:40;;;;;;;8.10;1.10;;;;;;;7.15;100.00;102248.38;5039645;28;20199;-71
2023/11/16 02:25:06;;;;;;;4.20;1.07;;;;;;;6.78;100.00;102185.91;5041030;28;20432;-74
2023/11/16 02:27:32;;;;;;;7.53;1.30;;;;;;;6.95;100.00;102197.69;5036234;28;20452;-74
2023/11/16 02:29:57;;;;;;;7.50;0.90;;;;;;;7.97;100.00;102300.31;5042513;28;20698;-73
2023/11/16 02:32:25;;;;;;;10.00;1.40;;;;;;;7.04;100.00;102185.31;5041413;28;20183;-74
2023/11/16 02:34:51;;;;;;;4.57;0.97;;;;;;;7.18;100.00;102160.00;5040565;28;20207;-73
2023/11/16 02:37:17;;;;;;;5.33;0.83;;;;;;;8.12;100.00;102293.50;5040969;28;20466;-73
2023/11/16 02:39:43;;;;;;;4.03;0.93;;;;;;;8.07;100.00;102235.16;5041711;28;20492;-72
2023/11/16 02:42:12;;;;;;;4.23;1.07;;;;;;;7.35;100.00;102129.91;5040228;28;20204;-72
2023/11/16 02:44:39;;;;;;;5.50;0.70;;;;;;;7.58;100.00;102097.47;5042424;28;20465;-71
2023/11/16 02:47:06;;;;;;;3.63;1.00;;;;;;;8.08;100.00;102204.78;5039638;28;20850;-72
2023/11/16 02:49:33;;;;;;;6.37;1.10;;;;;;;7.06;100.00;102073.97;5041289;28;20464;-71
2023/11/16 02:51:58;;;;;;;4.83;1.13;;;;;;;7.47;100.00;102061.16;5042321;28;20473;-73
2023/11/16 02:54:24;;;;;;;4.87;1.37;;;;;;;7.57;100.00;102050.41;5039885;28;20485;-71
2023/11/16 02:56:50;;;;;;;5.73;0.80;;;;;;;7.69;100.00;102151.56;5041007;28;20266;-72
2023/11/16 02:59:15;;;;;;;7.80;1.00;;;;;;;8.13;100.00;102154.41;5039378;28;20439;-73
2023/11/16 03:01:41;;;;;;;8.03;1.17;;;;;;;7.29;100.00;102054.91;5039173;28;20196;-71
2023/11/16 03:04:06;;;;;;;5.57;1.13;;;;;;;8.40;100.00;102165.22;5038736;28;20193;-72
2023/11/16 03:06:32;;;;;;;7.37;1.07;;;;;;;7.77;100.00;102038.59;5039908;28;20191;-71
2023/11/16 03:08:57;;;;;;;4.80;0.80;;;;;;;7.26;100.00;102016.00;5040025;28;20193;-72
2023/11/16 03:11:23;;;;;;;7.00;1.10;;;;;;;7.22;100.00;102033.31;5037951;28;20195;-71
2023/11/16 03:13:49;;;;;;;6.57;1.00;;;;;;;7.16;100.00;102013.38;5041266;28;20219;-72
2023/11/16 03:16:14;;;;;;;8.03;1.00;;;;;;;7.90;100.00;102134.44;5035868;28;20212;-72
2023/11/16 03:18:41;;;;;;;5.37;1.10;;;;;;;7.74;100.00;102121.72;5041011;28;20201;-71
2023/11/16 03:21:06;;;;;;;6.17;0.83;;;;;;;7.92;100.00;102122.56;5040844;28;20305;-71
2023/11/16 03:23:34;;;;;;;5.57;0.93;;;;;;;7.66;100.00;102134.97;5039791;28;21524;-71
2023/11/16 03:26:01;;;;;;;7.80;1.00;;;;;;;7.90;100.00;102140.59;5042365;28;20180;-72
2023/11/16 03:28:26;;;;;;;6.50;0.73;;;;;;;7.87;100.00;102134.72;5039868;28;20453;-71
2023/11/16 03:30:52;;;;;;;5.87;0.93;;;;;;;7.57;100.00;102123.34;5042010;28;20671;-72
2023/11/16 03:33:17;;;;;;;4.70;0.87;;;;;;;7.53;100.00;102129.97;5038901;28;20212;-71
2023/11/16 03:35:48;;;;;;;8.13;0.90;;;;;;;6.97;100.00;102051.66;5039780;28;20200;-72
2023/11/16 03:38:15;;;;;;;4.07;0.90;;;;;;;7.26;100.00;102101.41;5038891;28;20187;-71
2023/11/16 03:40:42;;;;;;;2.87;0.70;;;;;;;6.16;100.00;101981.94;5043337;28;20983;-71
2023/11/16 03:43:08;;;;;;;5.53;0.90;;;;;;;7.61;100.00;102113.22;5039011;28;21119;-72
2023/11/16 03:45:34;;;;;;;4.20;0.80;;;;;;;7.39;100.00;102099.25;5037495;28;20557;-71
2023/11/16 03:47:59;;;;;;;3.57;0.90;;;;;;;7.36;100.00;102150.25;5039741;28;20248;-71
2023/11/16 03:50:25;;;;;;;7.87;1.17;;;;;;;7.43;100.00;102146.03;5038060;28;20272;-71
2023/11/16 03:52:50;;;;;;;3.93;0.80;;;;;;;7.28;100.00;102127.94;5036750;28;20200;-72
2023/11/16 03:55:16;;;;;;;8.07;1.00;;;;;;;6.55;100.00;102021.88;5040312;28;20512;-72
2023/11/16 03:57:41;;;;;;;7.27;1.20;;;;;;;7.93;100.00;102151.00;5038183;28;20623;-71
2023/11/16 04:00:08;;;;;;;11.20;0.90;;;;;;;7.13;100.00;102020.84;5039174;28;20199;-71
2023/11/16 04:02:33;;;;;;;8.30;1.10;;;;;;;8.08;100.00;102127.28;5039138;28;20216;-71
2023/11/16 04:04:58;;;;;;;3.13;0.70;;;;;;;7.05;100.00;102007.41;5036419;28;20977;-72
2023/11/16 04:07:24;;;;;;;4.47;0.90;;;;;;;6.59;100.00;102011.75;5037727;28;20202;-72
2023/11/16 04:09:49;;;;;;;8.27;1.10;;;;;;;6.43;100.00;101991.03;5041345;28;20179;-71
2023/11/16 04:12:15;;;;;;;5.70;1.20;;;;;;;7.74;100.00;102142.25;5042314;28;20264;-72
2023/11/16 04:14:43;;;;;;;5.40;1.30;;;;;;;7.59;100.00;102137.38;5044370;28;20216;-72
2023/11/16 04:17:13;;;;;;;3.17;0.87;;;;;;;7.63;100.00;102152.13;5043870;28;20307;-72
2023/11/16 04:19:39;;;;;;;7.63;2.30;;;;;;;7.41;100.00;102161.34;5040452;28;20458;-71
2023/11/16 04:22:06;;;;;;;5.10;0.77;;;;;;;7.29;100.00;102153.66;5041258;28;20520;-72
2023/11/16 04:24:35;;;;;;;5.03;0.77;;;;;;;7.24;100.00;102170.09;5040622;28;20462;-71
2023/11/16 04:27:05;;;;;;;5.37;0.80;;;;;;;6.85;100.00;102106.16;5045219;28;20439;-71
2023/11/16 04:29:32;;;;;;;6.83;0.90;;;;;;;6.51;100.00;102125.28;5044691;28;20434;-72
2023/11/16 04:31:58;;;;;;;7.27;1.00;;;;;;;7.24;100.00;102213.66;5041040;28;20443;-71
2023/11/16 04:34:24;;;;;;;6.47;0.90;;;;;;;6.61;100.00;102122.59;5040545;28;20472;-71
2023/11/16 04:36:53;;;;;;;7.40;0.90;;;;;;;6.76;100.00;102161.19;5042541;28;20477;-71
2023/11/16 04:39:19;;;;;;;4.53;0.70;;;;;;;6.06;100.00;102032.56;5040217;28;20601;-71
2023/11/16 04:41:47;;;;;;;4.30;0.80;;;;;;;7.10;100.00;102224.75;5040934;28;20445;-71
2023/11/16 04:44:13;;;;;;;3.33;0.80;;;;;;;6.25;100.00;102102.81;5040447;28;20967;-71
2023/11/16 04:46:46;;;;;;;5.67;0.90;;;;;;;6.42;100.00;102127.94;5043290;28;20517;-71
2023/11/16 04:49:12;;;;;;;7.13;0.70;;;;;;;6.77;100.00;102226.88;5037168;28;20245;-71
2023/11/16 04:51:40;;;;;;;5.03;0.93;;;;;;;7.28;100.00;102251.56;5039667;28;20477;-71
2023/11/16 04:54:06;;;;;;;10.37;1.23;;;;;;;6.19;100.00;102130.88;5039550;28;20451;-71
2023/11/16 04:56:32;;;;;;;4.70;0.80;;;;;;;6.97;100.00;102264.22;5037434;28;20474;-73
2023/11/16 04:58:57;;;;;;;4.37;1.13;;;;;;;6.01;100.00;102157.31;5037670;28;20195;-72
2023/11/16 05:01:23;;;;;;;3.70;0.80;;;;;;;6.96;100.00;102274.03;5040013;28;20187;-71
2023/11/16 05:03:49;;;;;;;6.37;0.80;;;;;;;4.84;100.00;101985.78;5070075;22;20322;-78
2023/11/16 05:06:15;;;;;;;3.77;0.70;;;;;;;4.63;100.00;101899.91;5022362;28;20185;-78
2023/11/16 05:08:41;;;;;;;4.70;0.70;;;;;;;5.12;100.00;102005.47;5025038;28;20488;-79
2023/11/16 05:11:07;;;;;;;2.93;0.70;;;;;;;5.06;100.00;101995.34;5026575;28;20180;-79
2023/11/16 05:13:32;;;;;;;3.13;0.73;;;;;;;5.85;100.00;102114.38;5027005;28;20546;-79
2023/11/16 05:15:58;;;;;;;3.43;0.70;;;;;;;5.33;100.00;102118.97;5025635;28;20539;-79
2023/11/16 05:18:24;;;;;;;2.77;0.70;;;;;;;4.00;100.00;101934.53;5026008;28;20286;-78
2023/11/16 05:20:50;;;;;;;4.43;0.93;;;;;;;4.96;100.00;102109.66;5024624;28;20436;-79
2023/11/16 05:23:17;;;;;;;5.60;0.80;;;;;;;5.44;100.00;102172.09;5021049;28;20629;-78
2023/11/16 05:25:44;;;;;;;4.13;0.70;;;;;;;5.38;100.00;102136.22;5021340;28;20438;-79
2023/11/16 05:28:11;;;;;;;4.80;0.80;;;;;;;4.31;100.00;101956.69;5025446;28;20486;-78
2023/11/16 05:30:37;;;;;;;3.60;0.80;;;;;;;4.42;100.00;102038.09;5023440;28;20473;-78
2023/11/16 05:33:03;;;;;;;4.33;0.90;;;;;;;2.71;100.00;101861.03;5023542;28;20460;-78
2023/11/16 05:35:29;;;;;;;3.70;0.80;;;;;;;4.48;100.00;102175.75;5026981;28;20235;-79
2023/11/16 05:37:55;;;;;;;6.00;0.93;;;;;;;3.75;100.00;102002.91;5024819;28;20466;-79
2023/11/16 05:40:21;;;;;;;3.70;0.80;;;;;;;5.19;100.00;102307.19;5022295;28;20470;-79
2023/11/16 05:42:46;;;;;;;8.33;0.80;;;;;;;3.51;100.00;102073.91;5022917;28;20434;-78
2023/11/16 05:45:12;;;;;;;2.90;0.80;;;;;;;4.07;100.00;102202.03;5025625;28;20258;-78
2023/11/16 05:47:38;;;;;;;2.50;0.70;;;;;;;4.71;100.00;102249.09;5023297;28;20637;-78
2023/11/16 05:50:05;;;;;;;5.63;1.03;;;;;;;4.53;100.00;102242.66;5019925;28;20192;-78
2023/11/16 05:52:31;;;;;;;3.90;0.80;;;;;;;3.98;100.00;102183.38;5025318;28;21009;-78
2023/11/16 05:54:56;;;;;;;4.13;0.90;;;;;;;3.81;100.00;102139.56;5025506;28;20458;-78
2023/11/16 05:57:22;;;;;;;2.83;0.70;;;;;;;4.20;100.00;102055.00;5023754;28;20215;-78
2023/11/16 05:59:47;;;;;;;3.07;0.70;;;;;;;4.37;100.00;102070.38;5023698;28;20574;-78
2023/11/16 06:02:14;;;;;;;2.50;0.70;;;;;;;4.96;100.00;102138.91;5023537;28;20192;-78
2023/11/16 06:04:42;;;;;;;6.27;1.27;;;;;;;4.27;100.00;102011.03;5023647;28;20196;-78
2023/11/16 06:07:08;;;;;;;3.00;1.03;;;;;;;6.06;100.00;102280.31;5026226;28;20840;-79
2023/11/16 06:09:33;;;;;;;5.83;1.50;;;;;;;4.73;100.00;102087.69;5023041;28;20470;-78
2023/11/16 06:12:01;;;;;;;4.80;1.20;;;;;;;4.90;100.00;102151.91;5020231;28;20264;-78
2023/11/16 06:14:31;;;;;;;6.03;1.00;;;;;;;3.72;100.00;102013.78;5025886;28;20200;-78
2023/11/16 06:16:57;;;;;;;2.70;0.90;;;;;;;3.67;100.00;102029.22;5028294;28;20562;-78
2023/11/16 06:19:23;;;;;;;5.47;0.90;;;;;;;2.99;100.00;101972.81;5025095;28;20857;-78
2023/11/16 06:21:48;;;;;;;2.90;0.70;;;;;;;3.17;100.00;102066.78;5021929;28;20463;-78
2023/11/16 06:24:14;;;;;;;3.87;0.90;;;;;;;4.12;100.00;102161.84;5024871;28;20287;-78
2023/11/16 06:26:41;;;;;;;3.13;0.73;;;;;;;4.29;100.00;102141.91;5023569;28;20231;-78
2023/11/16 06:29:07;;;;;;;4.07;1.27;;;;;;;4.93;100.00;102298.72;5022990;28;20204;-78
2023/11/16 06:31:32;;;;;;;3.20;0.93;;;;;;;5.38;100.00;102410.28;5025076;28;20822;-78
2023/11/16 06:33:58;;;;;;;2.63;0.80;;;;;;;4.48;100.00;102170.44;5024454;28;20208;-78
2023/11/16 06:36:25;;;;;;;3.63;0.90;;;;;;;5.00;100.00;102317.66;5027144;28;20208;-78
2023/11/16 06:38:50;;;;;;;2.73;0.70;;;;;;;4.99;100.00;102253.00;5024584;28;20180;-78
2023/11/16 06:41:16;;;;;;;5.70;1.03;;;;;;;3.98;100.00;102193.97;5022702;28;20433;-78
2023/11/16 06:43:42;;;;;;;5.70;1.13;;;;;;;4.96;100.00;102428.75;5025600;28;20295;-78
2023/11/16 06:46:12;;;;;;;4.00;1.30;;;;;;;3.53;100.00;102207.25;5026249;28;20426;-79
2023/11/16 06:48:38;;;;;;;4.80;1.03;;;;;;;2.99;100.00;102107.16;5028703;28;20267;-78
2023/11/16 06:51:08;;;;;;;5.20;0.90;;;;;;;3.03;100.00;102154.50;5026488;28;20450;-78
2023/11/16 06:53:34;;;;;;;8.80;2.10;;;;;;;4.23;100.00;102431.91;5025853;28;20451;-78
2023/11/16 06:56:00;;;;;;;4.67;1.10;;;;;;;3.76;100.00;102370.88;5024629;28;20458;-79
2023/11/16 06:58:26;;;;;;;3.20;0.83;;;;;;;3.94;100.00;102379.22;5027967;28;20454;-78
2023/11/16 07:00:54;;;;;;;3.30;0.77;;;;;;;4.49;100.00;102401.50;5028362;28;20435;-78
2023/11/16 07:03:21;;;;;;;3.37;0.97;;;;;;;4.64;100.00;102383.47;5027024;28;20208;-78
2023/11/16 07:05:48;;;;;;;5.33;1.40;;;;;;;2.63;100.00;102201.69;5025680;28;20443;-78
2023/11/16 07:08:14;;;;;;;3.10;1.00;;;;;;;3.17;100.00;102292.16;5026855;28;20440;-78
2023/11/16 07:10:41;;;;;;;5.67;1.30;;;;;;;3.00;100.00;102209.56;5030742;28;20522;-78
2023/11/16 07:13:07;;;;;;;3.53;1.00;;;;;;;3.68;100.00;102369.75;5029602;28;20597;-78
2023/11/16 07:15:32;;;;;;;2.67;0.87;;;;;;;3.85;100.00;102404.66;5025129;28;21173;-78
2023/11/16 07:17:59;;;;;;;5.73;1.10;;;;;;;3.32;100.00;102300.75;5029878;28;20442;-78
2023/11/16 07:20:25;;;;;;;4.30;1.17;;;;;;;4.38;100.00;102421.91;5028611;28;20318;-78
2023/11/16 07:22:50;;;;;;;6.77;1.27;;;;;;;3.54;100.00;102294.69;5025299;28;20538;-79
2023/11/16 07:25:20;;;;;;;6.00;1.23;;;;;;;4.52;100.00;102472.16;5027886;28;20845;-79
2023/11/16 07:27:46;;;;;;;5.90;1.10;;;;;;;4.08;100.00;102365.72;5027002;28;20176;-78
2023/11/16 07:30:12;;;;;;;5.13;1.17;;;;;;;3.39;100.00;102285.25;5027888;28;20434;-78
2023/11/16 07:32:37;;;;;;;4.00;1.10;;;;;;;3.78;100.00;102371.56;5021531;28;20181;-78
2023/11/16 07:35:14;;;;;;;4.10;1.10;;;;;;;4.25;100.00;102457.38;5026542;28;20998;-78
2023/11/16 07:37:46;;;;;;;2.67;0.90;;;;;;;3.47;100.00;102279.34;5025782;28;20176;-78
2023/11/16 07:40:17;;;;;;;5.20;1.20;;;;;;;4.99;100.00;102459.59;5028385;28;20489;-78
2023/11/16 07:42:44;;;;;;;4.77;1.10;;;;;;;3.00;100.00;102173.28;5027035;28;20803;-78
2023/11/16 07:45:11;;;;;;;9.63;2.40;;;;;;;3.34;100.00;102123.81;5026929;28;20959;-78
2023/11/16 07:47:41;;;;;;;5.80;1.50;;;;;;;3.21;100.00;102122.22;5026640;28;20446;-79
2023/11/16 07:50:10;;;;;;;4.47;1.30;;;;;;;3.52;100.00;102203.75;5029071;28;20471;-79
2023/11/16 07:52:45;;;;;;;3.27;1.40;;;;;;;4.36;100.00;102344.13;5029223;28;20439;-78
2023/11/16 07:55:21;;;;;;;3.90;1.30;;;;;;;4.64;100.00;102391.47;5026245;28;21764;-79
2023/11/16 07:57:49;;;;;;;4.30;1.20;;;;;;;3.43;100.00;102154.06;5030713;28;20435;-79
2023/11/16 08:00:22;;;;;;;4.80;1.57;;;;;;;5.03;100.00;102365.28;5027900;28;20443;-79
2023/11/16 08:05:37;;;;;;;5.30;1.70;;;;;;;4.71;100.00;102195.09;5029281;28;20461;-79
2023/11/16 08:08:07;;;;;;;7.40;1.27;;;;;;;5.45;100.00;102266.91;5027489;28;20546;-78
2023/11/16 08:10:33;;;;;;;5.00;1.40;;;;;;;4.70;100.00;102167.69;5037805;28;20428;-78
2023/11/16 08:13:00;;;;;;;4.53;1.00;;;;;;;6.27;100.00;102356.66;5024381;28;21003;-78
2023/11/16 08:15:26;;;;;;;6.50;1.30;;;;;;;4.58;100.00;102101.44;5027016;28;20542;-78
2023/11/16 08:17:55;;;;;;;4.70;0.97;;;;;;;4.58;100.00;102041.16;5025159;28;20518;-79
2023/11/16 08:20:22;;;;;;;4.97;1.37;;;;;;;5.74;100.00;102226.31;5025017;28;20176;-78
2023/11/16 08:22:50;;;;;;;6.57;1.80;;;;;;;4.79;100.00;102136.00;5025246;28;20434;-78
2023/11/16 08:25:21;;;;;;;3.00;0.90;;;;;;;4.74;100.00;102110.66;5027505;28;20435;-78
2023/11/16 08:27:48;;;;;;;3.73;1.33;;;;;;;5.05;100.00;102182.50;5025270;28;20919;-78
2023/11/16 08:30:14;;;;;;;4.90;1.43;;;;;;;5.06;100.00;102199.28;5027813;28;20439;-79
2023/11/16 08:32:40;;;;;;;4.43;1.50;;;;;;;5.06;100.00;102189.50;5027494;28;20523;-78
2023/11/16 08:35:06;;;;;;;3.60;1.47;;;;;;;5.01;100.00;102258.22;5024213;28;20237;-78
2023/11/16 08:37:31;;;;;;;6.60;1.80;;;;;;;3.68;100.00;102030.94;5026173;28;20443;-78
2023/11/16 08:39:57;;;;;;;3.60;1.40;;;;;;;5.43;100.00;102324.75;5027049;28;20176;-79
2023/11/16 08:42:24;;;;;;;4.13;1.50;;;;;;;4.98;100.00;102207.94;5024938;28;20180;-79
2023/11/16 08:44:50;;;;;;;7.30;1.50;;;;;;;5.05;100.00;102194.97;5024821;28;20204;-79
2023/11/16 08:47:17;;;;;;;3.30;1.40;;;;;;;5.18;100.00;102212.41;5024734;28;20423;-79
2023/11/16 08:49:43;;;;;;;5.47;1.43;;;;;;;5.37;100.00;102235.63;5023798;28;20189;-79
2023/11/16 08:52:10;;;;;;;4.17;1.30;;;;;;;4.67;100.00;102013.81;5025865;28;20436;-79
2023/11/16 08:54:36;;;;;;;3.20;1.20;;;;;;;5.85;100.00;102192.44;5024004;28;20201;-79
2023/11/16 08:57:02;;;;;;;4.23;1.20;;;;;;;5.40;100.00;102157.34;5025067;28;20466;-79
2023/11/16 08:59:28;;;;;;;4.30;1.17;;;;;;;5.22;100.00;102050.72;5027058;28;20586;-79
2023/11/16 09:01:59;;;;;;;3.73;1.17;;;;;;;6.28;100.00;102299.75;5024989;28;20805;-79
2023/11/16 09:04:24;;;;;;;6.13;1.30;;;;;;;6.08;100.00;102182.47;5026592;28;20463;-79
2023/11/16 09:06:50;;;;;;;4.83;1.00;;;;;;;6.49;100.00;102215.22;5022383;28;20454;-79
2023/11/16 09:09:37;;;;;;;5.10;1.30;;;;;;;5.99;100.00;102126.47;5022001;28;20188;-79
2023/11/16 09:12:05;;;;;;;3.83;0.90;;;;;;;6.46;100.00;102206.66;5027262;28;20875;-79
2023/11/16 09:14:35;;;;;;;3.73;1.30;;;;;;;6.01;100.00;102143.16;5024451;28;20509;-79
2023/11/16 09:17:03;;;;;;;8.17;1.27;;;;;;;6.55;100.00;102208.47;5040357;28;20509;-79
2023/11/16 09:19:30;;;;;;;3.30;0.90;;;;;;;6.31;100.00;102163.56;5023655;28;21582;-79
2023/11/16 09:21:58;;;;;;;4.70;1.00;;;;;;;8.14;100.00;102425.16;5025303;28;20450;-79
2023/11/16 09:24:27;;;;;;;5.10;1.00;;;;;;;6.73;100.00;102160.63;5022061;28;20459;-79
2023/11/16 09:26:55;;;;;;;6.47;1.50;;;;;;;6.68;100.00;102133.53;5024833;28;20435;-79
2023/11/16 09:29:20;;;;;;;4.80;1.50;;;;;;;6.71;100.00;102178.59;5025221;28;20848;-79
2023/11/16 09:31:46;;;;;;;5.13;1.67;;;;;;;6.39;100.00;102097.06;5022356;28;20576;-78
2023/11/16 09:34:11;;;;;;;5.70;1.40;;;;;;;7.13;100.00;102205.78;5028711;28;20219;-79
2023/11/16 09:36:37;;;;;;;7.63;1.23;;;;;;;5.78;100.00;101978.28;5028456;28;20210;-79
2023/11/16 09:39:07;;;;;;;4.73;1.23;;;;;;;7.34;100.00;102248.31;5024732;28;20185;-79
2023/11/16 09:41:33;;;;;;;3.07;1.00;;;;;;;5.59;100.00;101912.59;5024447;28;20290;-79
2023/11/16 09:44:05;;;;;;;3.07;0.90;;;;;;;5.57;100.00;101916.34;5023650;28;21010;-79
2023/11/16 09:46:32;;;;;;;3.07;0.90;;;;;;;6.36;100.00;102173.81;5026373;28;20422;-79
2023/11/16 09:48:58;;;;;;;6.37;1.17;;;;;;;5.24;100.00;101957.50;5024360;28;20998;-79
2023/11/16 09:51:26;;;;;;;9.03;1.30;;;;;;;6.46;100.00;102153.34;5026953;28;20518;-79
2023/11/16 09:53:58;;;;;;;5.20;1.33;;;;;;;7.01;100.00;102205.09;5029217;28;20460;-79
2023/11/16 09:56:27;;;;;;;5.10;1.13;;;;;;;6.47;100.00;102229.66;5027453;28;20459;-79
2023/11/16 09:59:02;;;;;;;3.63;0.80;;;;;;;5.54;100.00;102133.06;5029439;28;20427;-79
2023/11/16 10:01:30;;;;;;;3.73;1.40;;;;;;;6.52;100.00;102228.25;5025586;28;20457;-79
2023/11/16 10:03:56;;;;;;;3.20;1.10;;;;;;;5.05;100.00;102011.47;5026433;28;20835;-79
2023/11/16 10:06:22;;;;;;;4.37;1.37;;;;;;;6.72;100.00;102302.94;5028136;28;20779;-79
2023/11/16 10:08:52;;;;;;;3.87;1.20;;;;;;;5.15;100.00;102065.53;5026594;28;20455;-79
2023/11/16 10:11:23;;;;;;;4.80;1.47;;;;;;;4.87;100.00;102118.44;5027183;28;20169;-79
2023/11/16 10:13:56;;;;;;;3.10;1.23;;;;;;;4.91;100.00;102044.56;5027188;28;20450;-79
2023/11/16 10:16:26;;;;;;;4.40;1.10;;;;;;;6.00;100.00;102264.84;5028047;28;20458;-79
2023/11/16 10:19:06;;;;;;;5.80;1.00;;;;;;;6.66;100.00;102324.84;5028481;28;20467;-79
2023/11/16 10:21:33;;;;;;;5.10;1.13;;;;;;;6.81;100.00;102322.63;5031582;28;20447;-79
2023/11/16 10:24:08;;;;;;;4.60;1.17;;;;;;;6.11;100.00;102269.25;5030667;28;20465;-79
2023/11/16 10:26:34;;;;;;;4.50;1.10;;;;;;;6.93;100.00;102354.34;5031229;28;20433;-79
2023/11/16 10:29:01;;;;;;;3.60;1.30;;;;;;;6.92;100.00;102352.69;5032784;28;20522;-79
2023/11/16 10:31:31;;;;;;;5.57;1.30;;;;;;;5.76;100.00;102096.56;5030404;28;20879;-79
2023/11/16 10:33:59;;;;;;;3.70;1.77;;;;;;;7.08;100.00;102306.75;5026909;28;20550;-79
2023/11/16 10:36:27;;;;;;;7.73;1.10;;;;;;;6.02;100.00;102161.69;5031033;28;20466;-79
2023/11/16 10:38:58;;;;;;;3.50;0.90;;;;;;;6.15;100.00;102156.09;5029308;28;20431;-79
2023/11/16 10:41:24;;;;;;;5.20;1.47;;;;;;;5.91;100.00;102140.47;5027277;28;20473;-79
2023/11/16 10:43:56;;;;;;;3.13;0.90;;;;;;;5.54;100.00;102074.50;5029384;28;20459;-79
2023/11/16 10:46:27;;;;;;;2.60;0.77;;;;;;;6.26;100.00;102219.09;5028352;28;20438;-79
2023/11/16 10:48:52;;;;;;;3.20;0.90;;;;;;;6.32;100.00;102178.56;5028643;28;20444;-79
2023/11/16 10:51:21;;;;;;;5.80;1.00;;;;;;;5.80;100.00;102020.75;5027637;28;20983;-79
2023/11/16 10:53:52;;;;;;;2.87;0.93;;;;;;;5.85;100.00;102010.53;5025643;28;20296;-79
2023/11/16 10:56:18;;;;;;;3.50;1.03;;;;;;;6.62;100.00;102150.94;5028215;28;20455;-80
2023/11/16 10:58:47;;;;;;;4.53;1.13;;;;;;;6.77;100.00;102114.03;5030315;28;20450;-80
2023/11/16 11:01:17;;;;;;;5.73;1.30;;;;;;;6.69;100.00;102040.09;5032191;28;20658;-79
2023/11/16 11:03:45;;;;;;;5.10;1.10;;;;;;;6.18;100.00;101933.88;5029925;28;20470;-79
2023/11/16 11:06:22;;;;;;;3.30;1.10;;;;;;;8.78;100.00;102343.31;5027425;28;20431;-79
2023/11/16 11:08:48;;;;;;;5.07;1.10;;;;;;;6.53;100.00;101958.03;5027891;28;20447;-79
2023/11/16 11:11:24;;;;;;;4.03;1.00;;;;;;;7.13;100.00;102072.38;5024491;28;20439;-80
2023/11/16 11:13:54;;;;;;;3.80;1.17;;;;;;;8.17;100.00;102114.00;5026354;28;20485;-80
2023/11/16 11:16:20;;;;;;;4.27;1.20;;;;;;;8.49;100.00;102105.47;5031192;28;20554;-80
2023/11/16 11:18:46;;;;;;;5.37;0.90;;;;;;;9.61;100.00;102257.38;5024829;28;20459;-80
2023/11/16 11:21:14;;;;;;;9.63;1.40;;;;;;;7.38;100.00;101889.38;5029781;28;20445;-79
2023/11/16 11:23:41;;;;;;;3.10;0.90;;;;;;;8.03;100.00;101963.88;5029870;28;21036;-79
2023/11/16 11:26:07;;;;;;;4.60;1.20;;;;;;;8.58;100.00;102051.88;5027415;28;20461;-80
2023/11/16 11:28:38;;;;;;;2.97;0.73;;;;;;;7.39;100.00;101877.69;5024058;28;21712;-80